Sperry, OK (74073)

7:15 PM CDT on July 30, 2016 (GMT -0500)
Carrington Pointe | | Change Station

Elev 656 ft 36.28 °N, 95.89 °W | Updated 7 minutes ago

Scattered Clouds
Scattered Clouds
89.8 °F
Feels Like 95 °F
N
0.0
Wind Variable Wind from ESE

Today
High -- | Low -- °F
--% Chance of Precip.
Yesterday
High -- | Low -- °F
Precip. -- in
Pressure 29.89 in
Visibility 10.0 miles
Clouds Scattered Clouds 25000 ft
Heat Index 95 °F
Dew Point 69 °F
Humidity 51%
Rainfall 0.15 in
Snow Depth Not available.
6:29 AM 8:30 PM
Waning Crescent, 10% visible
METAR KTUL 302353Z 11006KT 10SM SCT250 29/22 A2991 RMK AO2 SLP121 60001 T02940217 10306 20228 55006 $
Pressure 29.89 in
Visibility 10.0 miles
Clouds Scattered Clouds 25000 ft
Heat Index 95 °F
Dew Point 69 °F
Humidity 51%
Rainfall 0.15 in
Snow Depth Not available.
6:29 AM 8:30 PM
Waning Crescent, 10% visible
METAR KTUL 302353Z 11006KT 10SM SCT250 29/22 A2991 RMK AO2 SLP121 60001 T02940217 10306 20228 55006 $

10-Day Weather Forecast

Almanac

Astronomy

Jul. 30, 2016 Rise Set
Actual Time
Civil Twilight
Nautical Twilight
Astronomical Twilight
Moon
Length of Visible Light
Length of Day
Tomorrow will be .
, % of the Moon is Illuminated

Today's Extremes

State Highs State Lows

Community

WunderPhotos

Upload Photos

1,928,682 photos uploaded!

WunderBlog® & News

Nearby

Air Quality

  Air Quality AQ Index Pollutant
Not available.

Snow Depth

Station Depth Elevation

Earthquake Activity

City Distance Mag. Time & Date
Minimum magnitude displayed is 2.5.

Coastal Water Temperatures

Place Temperature

Stations

Nearby Weather Stations

Station Location Temp. Windchill Dew Point Humidity Wind Precip. Elev Updated Type
                   

Watches & Warnings

There are currently no watches in effect.